Time;durP1;ratioP1;P1;durP2;ratioP2;P2;SDS_P1;SDS_P2;PMS_P1;PMS_P2;Temp;Humidity;BMP_temperature;BMP_pressure;BME280_temperature;BME280_humidity;BME280_pressure;Samples;Min_cycle;Max_cycle;Signal;HPM_P1;HPM_P2
2022/06/26 00:00:05;;;;;;;9.48;7.75;;;19.40;99.90;;;;;;4129377;28;20120;-71
2022/06/26 00:02:06;;;;;;;7.60;5.88;;;19.30;99.90;;;;;;4128092;28;20046;-70
2022/06/26 00:04:07;;;;;;;8.82;5.82;;;19.30;99.90;;;;;;4129527;28;20039;-71
2022/06/26 00:06:07;;;;;;;9.18;5.30;;;19.40;99.90;;;;;;4128389;28;20042;-71
2022/06/26 00:08:08;;;;;;;7.65;4.90;;;19.40;99.90;;;;;;4129324;28;20030;-71
2022/06/26 00:10:09;;;;;;;5.95;4.93;;;19.50;99.90;;;;;;4128774;28;20045;-72
2022/06/26 00:12:09;;;;;;;7.03;4.90;;;19.60;99.90;;;;;;4129033;28;20089;-71
2022/06/26 00:14:10;;;;;;;5.10;4.60;;;19.70;99.90;;;;;;4128558;28;20034;-71
2022/06/26 00:16:11;;;;;;;7.70;5.40;;;19.70;99.90;;;;;;4128965;28;20038;-71
2022/06/26 00:18:12;;;;;;;6.68;5.18;;;19.70;99.90;;;;;;4129242;28;20038;-72
2022/06/26 00:20:13;;;;;;;6.20;4.75;;;19.80;99.90;;;;;;4124359;28;20026;-73
2022/06/26 00:22:13;;;;;;;6.50;4.32;;;19.90;99.90;;;;;;4114000;28;20046;-71
2022/06/26 00:24:14;;;;;;;5.20;4.30;;;19.90;99.90;;;;;;4129482;28;20026;-71
2022/06/26 00:26:14;;;;;;;4.60;4.13;;;20.00;99.90;;;;;;4127819;28;20054;-72
2022/06/26 00:28:15;;;;;;;4.57;3.85;;;20.00;99.90;;;;;;4129023;28;20035;-71
2022/06/26 00:30:16;;;;;;;4.88;4.38;;;20.10;99.90;;;;;;4117007;28;20533;-71
2022/06/26 00:32:16;;;;;;;4.60;4.00;;;20.10;99.90;;;;;;4128958;28;20030;-71
2022/06/26 00:34:17;;;;;;;5.85;4.30;;;20.20;99.90;;;;;;4128882;28;20031;-71
2022/06/26 00:36:18;;;;;;;6.15;4.25;;;20.30;99.90;;;;;;4128696;28;20035;-70
2022/06/26 00:38:18;;;;;;;4.75;3.75;;;20.30;99.90;;;;;;4129158;28;20038;-70
2022/06/26 00:40:19;;;;;;;5.65;4.40;;;20.40;99.90;;;;;;4127405;28;20660;-71
2022/06/26 00:42:20;;;;;;;4.93;4.30;;;20.40;99.90;;;;;;4128579;28;20482;-71
2022/06/26 00:44:23;;;;;;;5.05;4.13;;;20.50;99.90;;;;;;4128841;28;20043;-71
2022/06/26 00:46:24;;;;;;;;;;;20.50;99.90;;;;;;4128698;28;20042;-70
2022/06/26 00:48:25;;;;;;;4.22;3.83;;;20.50;99.90;;;;;;4128921;28;20345;-70
2022/06/26 00:50:26;;;;;;;4.55;4.10;;;20.50;99.90;;;;;;4128137;28;24243;-71
2022/06/26 00:52:27;;;;;;;4.30;3.83;;;20.60;99.90;;;;;;4128616;28;20519;-70
2022/06/26 00:54:28;;;;;;;4.55;3.92;;;20.60;99.90;;;;;;4128285;28;20121;-70
2022/06/26 00:56:29;;;;;;;4.20;3.80;;;20.70;99.90;;;;;;4127520;28;20113;-70
2022/06/26 00:58:30;;;;;;;4.57;4.15;;;20.70;99.90;;;;;;4128588;28;20030;-70
2022/06/26 01:00:30;;;;;;;6.25;4.85;;;20.70;99.90;;;;;;4128026;28;20053;-70
2022/06/26 01:02:31;;;;;;;5.45;4.25;;;20.80;99.90;;;;;;4128720;28;20026;-70
2022/06/26 01:04:32;;;;;;;5.97;4.38;;;20.80;99.90;;;;;;4128534;28;20037;-70
2022/06/26 01:06:34;;;;;;;5.60;4.57;;;20.80;99.90;;;;;;4127449;28;20084;-70
2022/06/26 01:08:35;;;;;;;5.20;4.45;;;20.80;99.90;;;;;;4128741;28;20467;-70
2022/06/26 01:10:38;;;;;;;4.53;4.03;;;20.80;99.90;;;;;;4127961;28;20481;-70
2022/06/26 01:12:39;;;;;;;4.60;4.20;;;20.80;99.90;;;;;;4127791;28;20030;-70
2022/06/26 01:14:41;;;;;;;4.20;3.78;;;20.80;99.90;;;;;;4128365;28;20043;-70
2022/06/26 01:16:43;;;;;;;8.73;4.47;;;20.80;99.90;;;;;;4128193;28;20046;-70
2022/06/26 01:18:44;;;;;;;6.30;4.80;;;20.80;99.90;;;;;;4128662;28;20413;-70
2022/06/26 01:20:53;;;;;;;4.35;3.95;;;20.80;99.90;;;;;;4127147;28;20121;-70
2022/06/26 01:23:07;;;;;;;4.82;4.35;;;20.90;99.90;;;;;;4127546;28;20045;-70
2022/06/26 01:25:08;;;;;;;5.45;4.53;;;20.80;99.90;;;;;;4126830;28;20444;-72
2022/06/26 01:27:09;;;;;;;5.03;4.50;;;20.80;99.90;;;;;;4128188;28;20034;-70
2022/06/26 01:29:10;;;;;;;6.65;5.25;;;20.80;99.90;;;;;;4128094;28;20078;-70
2022/06/26 01:31:10;;;;;;;5.97;5.35;;;20.80;99.90;;;;;;4127535;28;20034;-70
2022/06/26 01:33:11;;;;;;;5.47;4.68;;;20.70;99.90;;;;;;4128078;28;20556;-70
2022/06/26 01:35:11;;;;;;;4.80;4.32;;;20.60;99.90;;;;;;4127507;28;20117;-71
2022/06/26 01:37:12;;;;;;;6.20;5.10;;;20.60;99.90;;;;;;4127236;28;20025;-69
2022/06/26 01:39:13;;;;;;;6.75;5.05;;;20.60;99.90;;;;;;4127983;28;20478;-70
2022/06/26 01:41:14;;;;;;;6.70;4.90;;;20.60;99.90;;;;;;4127529;28;20402;-69
2022/06/26 01:43:17;;;;;;;6.95;5.28;;;20.60;99.90;;;;;;4127894;28;20127;-69
2022/06/26 01:45:17;;;;;;;5.45;4.65;;;20.50;99.90;;;;;;4127373;28;20505;-70
2022/06/26 01:47:18;;;;;;;6.03;5.43;;;20.40;99.90;;;;;;4128463;28;20045;-70
2022/06/26 01:49:18;;;;;;;5.65;4.57;;;20.40;99.90;;;;;;4128500;28;20065;-70
2022/06/26 01:51:19;;;;;;;5.65;5.05;;;20.40;99.90;;;;;;4126771;28;20486;-70
2022/06/26 01:53:20;;;;;;;5.97;5.22;;;20.30;99.90;;;;;;4128482;28;20054;-70
2022/06/26 01:55:21;;;;;;;6.15;5.30;;;20.30;99.90;;;;;;4127513;28;20418;-70
2022/06/26 01:57:22;;;;;;;5.22;4.72;;;20.30;99.90;;;;;;4127121;28;20050;-69
2022/06/26 01:59:22;;;;;;;5.13;4.63;;;20.30;99.90;;;;;;4128266;28;20026;-70
2022/06/26 02:01:23;;;;;;;7.68;5.43;;;20.30;99.90;;;;;;4127752;28;20077;-69
2022/06/26 02:03:24;;;;;;;6.72;5.57;;;20.30;99.90;;;;;;4128033;28;20042;-69
2022/06/26 02:05:25;;;;;;;7.25;5.25;;;20.20;99.90;;;;;;4127347;28;20042;-70
2022/06/26 02:07:26;;;;;;;11.73;5.95;;;20.30;99.90;;;;;;4128595;28;20036;-69
2022/06/26 02:14:06;;;;;;;8.07;5.53;;;20.10;99.90;;;;;;4128242;28;20050;-69
2022/06/26 02:16:12;;;;;;;6.65;5.53;;;20.10;99.90;;;;;;4127538;28;20124;-69
2022/06/26 02:18:12;;;;;;;7.00;6.30;;;20.10;99.90;;;;;;4127039;28;20092;-69
2022/06/26 02:20:13;;;;;;;7.47;6.05;;;20.10;99.90;;;;;;4127466;28;20129;-70
2022/06/26 02:22:14;;;;;;;6.45;5.70;;;20.10;99.90;;;;;;4128536;28;20049;-69
2022/06/26 02:24:14;;;;;;;7.60;6.45;;;20.10;99.90;;;;;;4127880;28;20034;-69
2022/06/26 02:26:17;;;;;;;6.35;5.53;;;20.10;99.90;;;;;;4127660;28;20042;-70
2022/06/26 02:28:18;;;;;;;;;;;20.10;99.90;;;;;;4138243;28;21150;-69
2022/06/26 02:30:18;;;;;;;6.70;5.82;;;20.10;99.90;;;;;;4127428;28;20004;-70
2022/06/26 02:32:19;;;;;;;8.32;6.10;;;20.10;99.90;;;;;;4127383;28;20030;-69
2022/06/26 02:34:19;;;;;;;6.00;5.32;;;20.10;99.90;;;;;;4128105;28;20039;-70
2022/06/26 02:36:20;;;;;;;5.57;4.75;;;20.10;99.90;;;;;;4128017;28;20066;-70
2022/06/26 02:38:22;;;;;;;6.13;4.95;;;20.10;99.90;;;;;;4128582;28;20037;-69
2022/06/26 02:40:25;;;;;;;6.50;5.65;;;20.10;99.90;;;;;;4127055;28;20041;-70
2022/06/26 02:42:25;;;;;;;11.27;5.75;;;20.10;99.90;;;;;;4128505;28;20039;-69
2022/06/26 02:44:26;;;;;;;6.13;4.38;;;20.10;99.90;;;;;;4126332;28;20042;-69
2022/06/26 02:46:27;;;;;;;5.57;4.90;;;20.20;99.90;;;;;;4127113;28;20037;-70
2022/06/26 02:48:27;;;;;;;7.10;5.45;;;20.20;99.90;;;;;;4128153;28;20050;-70
2022/06/26 02:50:28;;;;;;;5.75;4.88;;;20.20;99.90;;;;;;4124211;28;20042;-69
2022/06/26 02:52:30;;;;;;;7.75;5.50;;;20.30;99.90;;;;;;4127476;28;20058;-70
2022/06/26 02:54:30;;;;;;;9.57;5.47;;;20.30;99.90;;;;;;4128682;28;20420;-70
2022/06/26 02:56:31;;;;;;;6.30;5.60;;;20.30;99.90;;;;;;4129410;28;20062;-70
2022/06/26 02:58:31;;;;;;;5.10;4.57;;;20.30;99.90;;;;;;4130014;28;20765;-69
2022/06/26 03:00:32;;;;;;;5.53;4.90;;;20.30;99.90;;;;;;4129750;28;20517;-69
2022/06/26 03:02:33;;;;;;;4.70;4.10;;;20.30;99.90;;;;;;4130606;28;20481;-70
2022/06/26 03:04:34;;;;;;;6.03;4.72;;;20.30;99.90;;;;;;4130895;28;20046;-69
2022/06/26 03:06:34;;;;;;;5.63;5.00;;;20.30;99.90;;;;;;4129990;28;20169;-70
2022/06/26 03:08:35;;;;;;;6.07;5.30;;;20.30;99.90;;;;;;4130613;28;20041;-70
2022/06/26 03:10:36;;;;;;;5.63;5.03;;;20.40;99.90;;;;;;4128393;28;20026;-70
2022/06/26 03:12:47;;;;;;;4.93;4.40;;;20.40;99.90;;;;;;4130493;28;20113;-70
2022/06/26 03:14:48;;;;;;;6.75;5.43;;;20.40;99.90;;;;;;4129174;28;20121;-70
2022/06/26 03:16:48;;;;;;;6.55;5.25;;;20.40;99.90;;;;;;4129824;28;20497;-70
2022/06/26 03:18:49;;;;;;;5.45;4.85;;;20.40;99.90;;;;;;4129920;28;20038;-70
2022/06/26 03:20:50;;;;;;;5.22;4.72;;;20.40;99.90;;;;;;4129575;28;20109;-70
2022/06/26 03:22:51;;;;;;;7.07;5.38;;;20.40;99.90;;;;;;4130604;28;20035;-70
2022/06/26 03:24:52;;;;;;;6.22;5.57;;;20.30;99.90;;;;;;4128945;28;20037;-70
2022/06/26 03:26:53;;;;;;;6.93;6.03;;;20.30;99.90;;;;;;4129892;28;20440;-70
2022/06/26 03:28:54;;;;;;;7.65;5.57;;;20.30;99.90;;;;;;4130542;28;20037;-70
2022/06/26 03:30:54;;;;;;;7.57;5.60;;;20.20;99.90;;;;;;4129285;28;20489;-70
2022/06/26 03:32:55;;;;;;;7.05;5.90;;;20.20;99.90;;;;;;4130303;28;20044;-70
2022/06/26 03:34:55;;;;;;;7.20;5.93;;;20.10;99.90;;;;;;4127726;28;20042;-70
2022/06/26 03:36:56;;;;;;;6.10;5.32;;;20.10;99.90;;;;;;4126450;28;20030;-69
2022/06/26 03:38:57;;;;;;;6.63;5.93;;;20.10;99.90;;;;;;4125106;28;20030;-69
2022/06/26 03:40:58;;;;;;;10.02;6.25;;;20.00;99.90;;;;;;4126089;28;20045;-70
2022/06/26 03:42:58;;;;;;;7.22;6.47;;;20.00;99.90;;;;;;4129177;28;20121;-70
2022/06/26 03:44:59;;;;;;;6.20;5.53;;;19.90;99.90;;;;;;4129376;28;20041;-70
2022/06/26 03:47:00;;;;;;;8.20;5.32;;;19.90;99.90;;;;;;4126017;28;20034;-70
2022/06/26 03:49:02;;;;;;;6.82;5.20;;;19.90;99.90;;;;;;4128259;28;20039;-69
2022/06/26 03:51:03;;;;;;;5.78;5.13;;;19.90;99.90;;;;;;4112354;28;20043;-70
2022/06/26 03:53:04;;;;;;;6.23;5.63;;;19.90;99.90;;;;;;4130367;28;20129;-70
2022/06/26 03:55:05;;;;;;;7.10;5.57;;;19.90;99.90;;;;;;4123715;28;20120;-71
2022/06/26 03:57:06;;;;;;;6.82;5.80;;;19.80;99.90;;;;;;4124507;28;20045;-69
2022/06/26 03:59:06;;;;;;;8.07;5.72;;;19.80;99.90;;;;;;4123518;28;20034;-69
2022/06/26 04:01:07;;;;;;;6.55;5.53;;;19.80;99.90;;;;;;4123572;28;20046;-70
2022/06/26 04:03:08;;;;;;;8.10;6.60;;;19.80;99.90;;;;;;4123482;28;20034;-70
2022/06/26 04:05:09;;;;;;;8.07;5.90;;;19.90;99.90;;;;;;4125980;28;20498;-69
2022/06/26 04:07:12;;;;;;;6.60;5.47;;;19.80;99.90;;;;;;4124585;28;20035;-71
2022/06/26 04:09:12;;;;;;;7.20;5.22;;;19.80;99.90;;;;;;4133973;28;20416;-70
2022/06/26 04:11:14;;;;;;;7.30;5.72;;;19.80;99.90;;;;;;4128368;28;20121;-69
2022/06/26 04:13:14;;;;;;;5.70;4.95;;;19.80;99.90;;;;;;4126901;28;20038;-70
2022/06/26 04:15:15;;;;;;;5.55;4.47;;;19.80;99.90;;;;;;4126140;28;20054;-71
2022/06/26 04:17:16;;;;;;;11.27;4.80;;;19.80;99.90;;;;;;4128221;28;20486;-70
2022/06/26 04:19:17;;;;;;;5.97;4.97;;;19.80;99.90;;;;;;4128665;28;20035;-70
2022/06/26 04:21:18;;;;;;;5.43;4.70;;;19.90;99.90;;;;;;4127786;28;20030;-70
2022/06/26 04:23:18;;;;;;;5.93;4.72;;;19.90;99.90;;;;;;4129047;28;20592;-70
2022/06/26 04:25:19;;;;;;;7.07;4.22;;;19.80;99.90;;;;;;4127109;28;20113;-70
2022/06/26 04:27:19;;;;;;;4.80;4.28;;;19.80;99.90;;;;;;4127249;28;20031;-70
2022/06/26 04:29:20;;;;;;;5.80;4.45;;;19.90;99.90;;;;;;4128310;28;20046;-69
2022/06/26 04:31:21;;;;;;;4.97;4.10;;;19.90;99.90;;;;;;4127957;28;20030;-70
2022/06/26 04:33:21;;;;;;;6.55;5.05;;;19.90;99.90;;;;;;4129853;28;20437;-70
2022/06/26 04:35:22;;;;;;;5.18;3.40;;;19.90;99.90;;;;;;4127892;28;20034;-71
2022/06/26 04:37:22;;;;;;;5.60;4.38;;;19.90;99.90;;;;;;4128525;28;20057;-70
2022/06/26 04:39:23;;;;;;;5.53;4.35;;;19.80;99.90;;;;;;4129153;28;20034;-70
2022/06/26 04:41:34;;;;;;;5.50;3.90;;;19.80;99.90;;;;;;4128066;28;20030;-70
2022/06/26 04:43:35;;;;;;;5.28;3.50;;;19.80;99.90;;;;;;4128130;28;20557;-70
2022/06/26 04:45:36;;;;;;;5.45;2.85;;;19.70;99.90;;;;;;4112342;28;20054;-70
2022/06/26 04:47:36;;;;;;;4.82;2.80;;;19.70;99.90;;;;;;4112733;28;20030;-69
2022/06/26 04:49:37;;;;;;;6.28;3.00;;;19.60;99.90;;;;;;4112987;28;20030;-70
2022/06/26 04:51:38;;;;;;;5.15;2.55;;;19.40;99.90;;;;;;4109529;28;20035;-70
2022/06/26 04:53:39;;;;;;;4.13;2.60;;;19.40;99.90;;;;;;4110046;28;20161;-69
2022/06/26 04:55:39;;;;;;;3.92;2.25;;;19.20;99.90;;;;;;4108218;28;20031;-70
2022/06/26 04:57:40;;;;;;;3.30;2.22;;;19.30;99.90;;;;;;4107215;28;20506;-69
2022/06/26 04:59:40;;;;;;;3.58;2.38;;;19.30;99.90;;;;;;4106849;28;20031;-69
2022/06/26 05:01:41;;;;;;;3.55;2.17;;;19.30;99.90;;;;;;4105471;28;20035;-70
2022/06/26 05:03:42;;;;;;;4.18;2.33;;;19.20;99.90;;;;;;4104198;28;20031;-69
2022/06/26 05:05:42;;;;;;;3.30;2.35;;;19.20;99.90;;;;;;4106649;28;20042;-69
2022/06/26 05:07:43;;;;;;;4.15;2.60;;;19.30;99.90;;;;;;4107033;28;20031;-69
2022/06/26 05:09:43;;;;;;;3.75;2.47;;;19.20;99.90;;;;;;4107221;28;20495;-70
2022/06/26 05:11:44;;;;;;;3.25;2.13;;;19.20;99.90;;;;;;4109229;28;20406;-69
2022/06/26 05:13:46;;;;;;;3.45;2.47;;;19.20;99.90;;;;;;4110886;28;20034;-69
2022/06/26 05:15:46;;;;;;;4.40;2.50;;;19.30;99.90;;;;;;4112006;28;20054;-69
2022/06/26 05:17:47;;;;;;;3.58;2.40;;;19.20;99.90;;;;;;4124141;28;20043;-70
2022/06/26 05:19:48;;;;;;;6.30;3.25;;;19.20;99.90;;;;;;4117464;28;20031;-69
2022/06/26 05:21:48;;;;;;;5.03;2.35;;;19.20;99.90;;;;;;4108943;28;20089;-69
2022/06/26 05:23:49;;;;;;;4.57;2.45;;;19.10;99.90;;;;;;4106772;28;20106;-69
2022/06/26 05:25:50;;;;;;;4.63;2.67;;;19.10;99.90;;;;;;4111500;28;20035;-69
2022/06/26 05:27:51;;;;;;;3.90;2.50;;;19.10;99.90;;;;;;4113915;28;20042;-72
2022/06/26 05:29:51;;;;;;;7.45;3.10;;;19.10;99.90;;;;;;4113557;28;20042;-72
2022/06/26 05:31:52;;;;;;;7.18;2.78;;;19.10;99.90;;;;;;4109496;28;20034;-72
2022/06/26 05:33:53;;;;;;;4.75;3.30;;;19.10;99.90;;;;;;4114417;28;20037;-73
2022/06/26 05:35:54;;;;;;;4.70;2.75;;;19.10;99.90;;;;;;4107107;28;20040;-72
2022/06/26 05:37:55;;;;;;;4.68;2.80;;;19.10;99.90;;;;;;4107274;28;20050;-72
2022/06/26 05:39:55;;;;;;;5.45;3.08;;;19.00;99.90;;;;;;4104378;28;20039;-72
2022/06/26 05:41:56;;;;;;;5.57;3.05;;;19.10;99.90;;;;;;4106246;28;20119;-72
2022/06/26 05:43:57;;;;;;;5.55;3.05;;;19.10;99.90;;;;;;4117959;28;20045;-72
2022/06/26 05:45:58;;;;;;;4.43;2.85;;;19.10;99.90;;;;;;4125596;28;20031;-72
2022/06/26 05:48:00;;;;;;;4.57;2.60;;;19.20;99.90;;;;;;4127522;28;20038;-72
2022/06/26 05:50:01;;;;;;;3.63;2.40;;;19.20;99.90;;;;;;4142423;28;20037;-72
2022/06/26 05:52:01;;;;;;;12.50;3.47;;;19.30;99.90;;;;;;4145019;28;20052;-72
2022/06/26 05:54:02;;;;;;;5.68;2.72;;;19.30;99.90;;;;;;4127785;28;20049;-72
2022/06/26 05:56:03;;;;;;;5.15;3.35;;;19.40;99.90;;;;;;4127261;28;20026;-72
2022/06/26 05:58:04;;;;;;;7.22;3.50;;;19.50;99.90;;;;;;4128984;28;20038;-72
2022/06/26 06:00:06;;;;;;;6.47;3.10;;;19.50;99.90;;;;;;4128502;28;20124;-74
2022/06/26 06:02:07;;;;;;;;;;;19.50;99.90;;;;;;4133739;28;20042;-72
2022/06/26 06:04:09;;;;;;;4.00;2.97;;;19.60;99.90;;;;;;4143389;28;19945;-73
2022/06/26 06:06:09;;;;;;;7.07;3.20;;;19.60;99.90;;;;;;4128039;28;20057;-73
2022/06/26 06:08:10;;;;;;;5.97;3.00;;;19.50;99.90;;;;;;4123851;28;20030;-72
2022/06/26 06:10:10;;;;;;;5.47;2.33;;;19.60;99.90;;;;;;4114141;28;20109;-72
2022/06/26 06:12:11;;;;;;;4.95;2.83;;;19.70;99.90;;;;;;4122540;28;20047;-72
2022/06/26 06:14:11;;;;;;;4.90;2.97;;;19.90;99.90;;;;;;4121561;28;20038;-74
2022/06/26 06:16:12;;;;;;;3.70;2.35;;;20.20;99.90;;;;;;4125913;28;20129;-72
2022/06/26 06:18:13;;;;;;;3.63;2.45;;;20.40;99.90;;;;;;4120413;28;20451;-74
2022/06/26 06:20:17;;;;;;;2.83;2.30;;;20.70;99.90;;;;;;4122163;28;20030;-75
2022/06/26 06:22:18;;;;;;;4.40;2.67;;;21.00;99.90;;;;;;4121052;28;20544;-73
2022/06/26 06:24:19;;;;;;;6.38;2.80;;;21.30;99.90;;;;;;4134361;28;20039;-74
2022/06/26 06:26:19;;;;;;;4.88;2.70;;;21.50;99.90;;;;;;4121268;28;20034;-75
2022/06/26 06:28:20;;;;;;;7.03;3.03;;;21.50;99.90;;;;;;4120822;28;20047;-74
2022/06/26 06:30:21;;;;;;;6.35;2.65;;;21.50;99.90;;;;;;4126915;28;20070;-75
2022/06/26 06:32:21;;;;;;;4.50;2.40;;;21.50;99.90;;;;;;4120624;28;20039;-74
2022/06/26 06:34:22;;;;;;;5.18;2.33;;;21.40;99.90;;;;;;4120687;28;20034;-72
2022/06/26 06:36:22;;;;;;;5.65;3.15;;;21.50;99.90;;;;;;4123538;28;20030;-72
2022/06/26 06:38:25;;;;;;;6.60;2.40;;;21.50;99.90;;;;;;4127203;28;20117;-73
2022/06/26 06:40:25;;;;;;;4.80;2.40;;;21.40;99.90;;;;;;4110975;28;20035;-73
2022/06/26 06:42:26;;;;;;;4.30;2.08;;;21.40;99.90;;;;;;4127123;28;20122;-71
2022/06/26 06:44:27;;;;;;;6.03;2.67;;;21.40;99.90;;;;;;4126003;28;20042;-73
2022/06/26 06:46:28;;;;;;;3.42;1.67;;;21.40;99.90;;;;;;4127898;28;20084;-72
2022/06/26 06:48:28;;;;;;;2.90;1.80;;;21.40;99.90;;;;;;4128322;28;20066;-73
2022/06/26 06:50:29;;;;;;;5.93;2.35;;;21.40;99.90;;;;;;4127243;28;20142;-74
2022/06/26 06:52:30;;;;;;;4.68;1.98;;;21.50;99.90;;;;;;4125863;28;20093;-72
2022/06/26 06:54:30;;;;;;;4.15;2.70;;;21.50;99.90;;;;;;4126089;28;20031;-71
2022/06/26 06:56:31;;;;;;;4.85;2.10;;;21.50;99.90;;;;;;4127202;28;20573;-70
2022/06/26 06:58:32;;;;;;;4.13;2.20;;;21.50;99.90;;;;;;4126790;28;20037;-70
2022/06/26 07:00:32;;;;;;;5.47;2.47;;;21.60;99.90;;;;;;4126436;28;20045;-70
2022/06/26 07:02:35;;;;;;;3.28;2.10;;;21.50;99.90;;;;;;4128472;28;20493;-70
2022/06/26 07:04:36;;;;;;;4.28;2.33;;;21.50;99.90;;;;;;4127843;28;20518;-70
2022/06/26 07:06:37;;;;;;;3.90;2.17;;;21.30;99.90;;;;;;4126444;28;20041;-70
2022/06/26 07:08:38;;;;;;;2.70;1.90;;;21.30;99.90;;;;;;4127398;28;20035;-70
2022/06/26 07:10:38;;;;;;;5.25;2.40;;;21.30;99.90;;;;;;4126468;28;20516;-70
2022/06/26 07:12:39;;;;;;;4.90;2.22;;;21.30;99.90;;;;;;4128345;28;20042;-70
2022/06/26 07:14:40;;;;;;;3.45;1.90;;;21.30;99.90;;;;;;4125817;28;20122;-70
2022/06/26 07:16:41;;;;;;;2.78;1.85;;;21.40;99.90;;;;;;4137880;28;20057;-70
2022/06/26 07:18:41;;;;;;;2.95;1.88;;;21.50;99.90;;;;;;4144655;28;20474;-70
2022/06/26 07:20:42;;;;;;;4.70;2.28;;;21.60;99.90;;;;;;4142226;28;20034;-70
2022/06/26 07:22:43;;;;;;;3.90;2.22;;;21.60;99.90;;;;;;4127724;28;20038;-70
2022/06/26 07:24:43;;;;;;;3.88;2.20;;;21.70;99.90;;;;;;4122565;28;20537;-71
2022/06/26 07:26:44;;;;;;;3.42;1.90;;;21.80;99.90;;;;;;4128039;28;20038;-70
2022/06/26 07:28:45;;;;;;;2.97;2.30;;;21.80;99.90;;;;;;4127900;28;20034;-70
2022/06/26 07:30:45;;;;;;;2.17;1.65;;;21.90;99.90;;;;;;4124686;28;20037;-70
2022/06/26 07:32:46;;;;;;;5.55;2.40;;;22.00;99.90;;;;;;4125923;28;20054;-71
2022/06/26 07:34:47;;;;;;;3.70;2.10;;;22.00;99.90;;;;;;4124260;28;20113;-70
2022/06/26 07:36:49;;;;;;;3.22;1.90;;;22.10;99.90;;;;;;4132148;28;20458;-71
2022/06/26 07:38:49;;;;;;;1.98;1.67;;;22.10;99.90;;;;;;4128449;28;20560;-70
2022/06/26 07:40:51;;;;;;;3.33;2.00;;;22.00;99.90;;;;;;4127483;28;20042;-71
2022/06/26 07:42:51;;;;;;;3.83;2.10;;;22.00;99.90;;;;;;4128503;28;20049;-70
2022/06/26 07:44:52;;;;;;;2.10;1.52;;;22.00;99.90;;;;;;4128287;28;20038;-71
2022/06/26 07:46:53;;;;;;;4.25;1.80;;;22.00;99.90;;;;;;4128891;28;20061;-71
2022/06/26 07:48:54;;;;;;;5.32;1.85;;;21.90;99.90;;;;;;4130862;28;20030;-71
2022/06/26 07:50:54;;;;;;;2.38;1.30;;;21.90;99.90;;;;;;4128717;28;20041;-71
2022/06/26 07:52:55;;;;;;;2.80;1.60;;;21.90;99.90;;;;;;4129358;28;20513;-71
2022/06/26 07:54:56;;;;;;;2.90;1.50;;;22.00;99.90;;;;;;4124918;28;20165;-71
2022/06/26 07:56:56;;;;;;;2.78;1.50;;;22.10;99.90;;;;;;4136134;28;20394;-71
2022/06/26 07:58:58;;;;;;;2.10;1.58;;;22.10;99.90;;;;;;4136738;28;20046;-71
2022/06/26 08:00:58;;;;;;;1.70;1.20;;;22.10;99.90;;;;;;4130103;28;20413;-71
2022/06/26 08:03:10;;;;;;;4.10;1.77;;;22.20;99.90;;;;;;4129035;28;20034;-71
2022/06/26 08:05:11;;;;;;;3.17;1.63;;;22.30;99.90;;;;;;4122134;28;20478;-69
2022/06/26 08:07:11;;;;;;;2.70;1.60;;;22.40;99.90;;;;;;4130292;28;20038;-70
2022/06/26 08:09:12;;;;;;;2.83;1.50;;;22.40;99.90;;;;;;4130488;28;20097;-71
2022/06/26 08:11:13;;;;;;;2.75;1.52;;;22.40;99.90;;;;;;4128656;28;20089;-71
2022/06/26 08:13:13;;;;;;;4.60;2.03;;;22.50;99.90;;;;;;4129059;28;20053;-72
2022/06/26 08:15:14;;;;;;;2.50;1.50;;;22.60;99.90;;;;;;4124450;28;20030;-71
2022/06/26 08:17:14;;;;;;;3.72;1.50;;;22.50;99.90;;;;;;4129007;28;20045;-71
2022/06/26 08:19:15;;;;;;;6.00;1.50;;;22.60;99.90;;;;;;4129301;28;20037;-70
2022/06/26 08:23:35;;;;;;;3.55;1.25;;;22.70;99.90;;;;;;4129587;28;20384;-70
2022/06/26 08:25:35;;;;;;;2.95;1.60;;;22.70;99.90;;;;;;4126281;28;20109;-70
2022/06/26 08:27:36;;;;;;;5.15;1.83;;;22.70;99.90;;;;;;4129874;28;20034;-71
2022/06/26 08:29:37;;;;;;;4.75;1.50;;;22.80;99.90;;;;;;4128754;28;20034;-71
2022/06/26 08:31:38;;;;;;;2.55;1.27;;;22.80;99.90;;;;;;4121762;28;20470;-71
2022/06/26 08:33:38;;;;;;;5.82;1.40;;;22.90;99.90;;;;;;4129858;28;20037;-71
2022/06/26 08:35:39;;;;;;;1.70;1.27;;;22.90;99.90;;;;;;4125759;28;20030;-72
2022/06/26 08:37:39;;;;;;;2.00;1.00;;;23.00;99.90;;;;;;4127814;28;20043;-72
2022/06/26 08:39:40;;;;;;;3.85;1.20;;;23.00;99.90;;;;;;4129848;28;20050;-71
2022/06/26 08:41:45;;;;;;;2.28;0.90;;;23.00;99.90;;;;;;4129526;28;20433;-70
2022/06/26 08:43:47;;;;;;;2.65;1.10;;;22.90;99.90;;;;;;4137028;28;20044;-71
2022/06/26 08:45:50;;;;;;;2.13;0.88;;;22.90;99.90;;;;;;4128476;28;20030;-71
2022/06/26 08:47:52;;;;;;;1.98;1.17;;;22.90;99.90;;;;;;4128944;28;20037;-71
2022/06/26 08:49:53;;;;;;;2.58;0.82;;;22.90;99.90;;;;;;4128750;28;20041;-71
2022/06/26 08:51:54;;;;;;;1.02;0.70;;;22.90;99.90;;;;;;4114649;28;20407;-72
2022/06/26 08:53:56;;;;;;;3.00;1.17;;;22.90;99.90;;;;;;4128549;28;20030;-71
2022/06/26 08:55:57;;;;;;;4.60;1.65;;;22.90;99.90;;;;;;4127205;28;20515;-71
2022/06/26 08:57:58;;;;;;;2.13;1.02;;;22.90;99.90;;;;;;4131405;28;20048;-71
2022/06/26 08:59:59;;;;;;;2.75;1.05;;;22.90;99.90;;;;;;4127124;28;20115;-71
2022/06/26 09:01:59;;;;;;;1.48;1.00;;;22.90;99.90;;;;;;4127510;28;20409;-71
2022/06/26 09:04:00;;;;;;;2.63;0.98;;;22.90;99.90;;;;;;4126560;28;20443;-71
2022/06/26 09:06:04;;;;;;;2.45;1.17;;;22.90;99.90;;;;;;4126341;28;20101;-71
2022/06/26 09:08:04;;;;;;;3.80;0.95;;;23.00;99.90;;;;;;4127247;28;20038;-71
2022/06/26 09:10:10;;;;;;;1.42;0.93;;;23.00;99.90;;;;;;4120256;28;20035;-73
2022/06/26 09:12:10;;;;;;;4.28;1.48;;;23.00;99.90;;;;;;4125797;28;20042;-71
2022/06/26 09:14:13;;;;;;;3.13;1.38;;;23.10;99.90;;;;;;4126078;28;20066;-70
2022/06/26 09:16:14;;;;;;;2.25;1.08;;;23.10;99.90;;;;;;4127677;28;20030;-71
2022/06/26 09:18:15;;;;;;;1.13;0.93;;;23.10;99.90;;;;;;4133183;28;20037;-71
2022/06/26 09:20:15;;;;;;;1.77;0.85;;;23.20;99.90;;;;;;4139401;28;20130;-71
2022/06/26 09:22:16;;;;;;;2.08;1.10;;;23.20;99.90;;;;;;4127873;28;20129;-71
2022/06/26 09:24:21;;;;;;;1.63;0.93;;;23.20;99.90;;;;;;4134227;28;20041;-71
2022/06/26 09:26:22;;;;;;;1.48;0.77;;;23.30;99.90;;;;;;4127091;28;20045;-71
2022/06/26 09:28:23;;;;;;;2.45;1.00;;;23.30;99.90;;;;;;4128592;28;20541;-71
2022/06/26 09:30:23;;;;;;;2.60;1.10;;;23.40;99.90;;;;;;4123055;28;20038;-71
2022/06/26 09:32:26;;;;;;;1.73;1.10;;;23.40;99.90;;;;;;4119939;28;20042;-71
2022/06/26 09:34:27;;;;;;;2.53;1.27;;;23.40;99.90;;;;;;4133907;28;20045;-71
2022/06/26 09:36:27;;;;;;;2.83;1.00;;;23.30;99.90;;;;;;4128273;28;20026;-71
2022/06/26 09:38:33;;;;;;;1.95;1.00;;;23.20;99.90;;;;;;4127565;28;20435;-71
2022/06/26 09:40:34;;;;;;;1.23;0.85;;;23.20;99.90;;;;;;4124989;28;20485;-71
2022/06/26 09:42:34;;;;;;;4.22;1.10;;;23.20;99.90;;;;;;4123415;28;20097;-71
2022/06/26 09:44:44;;;;;;;2.80;1.25;;;23.20;99.90;;;;;;4127698;28;20039;-71
2022/06/26 09:46:44;;;;;;;5.57;1.35;;;23.10;99.90;;;;;;4128300;28;20034;-71
2022/06/26 09:48:45;;;;;;;2.42;1.02;;;23.10;99.90;;;;;;4131532;28;20069;-72
2022/06/26 09:50:46;;;;;;;1.63;0.90;;;23.20;99.90;;;;;;4137491;28;20096;-72
2022/06/26 09:52:47;;;;;;;3.35;1.27;;;23.20;99.90;;;;;;4127986;28;20068;-72
2022/06/26 09:54:48;;;;;;;6.85;3.50;;;23.10;99.90;;;;;;4128209;28;20394;-72
2022/06/26 09:56:49;;;;;;;6.32;4.03;;;23.20;99.90;;;;;;4128626;28;20039;-71
2022/06/26 09:58:52;;;;;;;3.35;1.98;;;23.20;99.90;;;;;;4127313;28;20073;-72
2022/06/26 10:07:52;;;;;;;4.53;1.25;;;23.40;99.90;;;;;;4128052;28;20465;-71
2022/06/26 10:09:53;;;;;;;2.65;1.10;;;23.40;99.90;;;;;;4136327;28;20198;-71
2022/06/26 10:11:57;;;;;;;1.20;0.90;;;23.40;99.90;;;;;;4126867;28;20046;-71
2022/06/26 10:14:04;;;;;;;2.90;1.33;;;23.50;99.90;;;;;;4123655;28;20031;-71
2022/06/26 10:16:23;;;;;;;3.70;1.17;;;23.60;99.90;;;;;;4125559;28;20035;-71
2022/06/26 10:18:42;;;;;;;1.65;1.08;;;23.60;99.90;;;;;;4128876;28;20038;-72
2022/06/26 10:20:44;;;;;;;1.45;0.90;;;23.70;99.90;;;;;;4140167;28;20026;-71
2022/06/26 10:22:45;;;;;;;3.95;1.63;;;23.70;99.80;;;;;;4128566;28;20034;-72
2022/06/26 10:24:56;;;;;;;1.63;0.93;;;23.80;99.60;;;;;;4125494;28;20037;-72
2022/06/26 10:27:00;;;;;;;1.73;0.90;;;23.80;99.90;;;;;;4121340;28;20034;-72
2022/06/26 10:29:03;;;;;;;1.42;0.98;;;23.80;99.90;;;;;;4124725;28;20054;-72
2022/06/26 10:31:07;;;;;;;3.65;1.08;;;23.80;99.90;;;;;;4125049;28;20037;-72
2022/06/26 10:33:20;;;;;;;3.53;1.10;;;23.90;99.90;;;;;;4127884;28;20083;-72
2022/06/26 10:35:35;;;;;;;;;;;23.90;99.90;;;;;;4127083;28;20033;-72
2022/06/26 10:37:49;;;;;;;2.10;1.10;;;23.90;99.90;;;;;;4127651;28;19916;-72
2022/06/26 10:39:52;;;;;;;1.92;1.15;;;23.80;99.90;;;;;;4128019;28;20557;-72
2022/06/26 10:44:44;;;;;;;2.78;1.20;;;23.50;99.90;;;;;;4125964;28;20034;-72
2022/06/26 10:46:47;;;;;;;1.48;0.90;;;23.40;99.90;;;;;;4126807;28;20034;-72
2022/06/26 10:48:55;;;;;;;2.28;1.23;;;23.50;99.90;;;;;;4124165;28;20085;-72